Weather History for Douglas, GA

Change the Weather History Date:

Thursday, December 6, 2012

  Actual Average Record
Temperature  
Mean Temperature 61 °F -  
Max Temperature 69 °F 64 °F 81 °F (1977)
Min Temperature 53 °F 35 °F 22 °F (1984)
Degree Days  
Heating Degree Days 4    
Growing Degree Days 11 (Base 50)    
Moisture  
Dew Point 56 °F    
Average Humidity 86    
Maximum Humidity 100    
Minimum Humidity 60    
Precipitation  
Precipitation 0.00 in - - ()
Sea Level Pressure  
Sea Level Pressure 30.10 in    
Wind  
Wind Speed 3 mph (ENE)    
Max Wind Speed 9 mph    
Max Gust Speed -    
Visibility 10 miles    
Events Rain    
Averages and records for this station are not official NWS values.
T = Trace of Precipitation, MM = Missing Value Source: NWS Daily Summary

Daily Weather History Graph

Daily Weather History Graph

Search for Another Location

Airport:

Trip Planner

Search our weather history database for the weather conditions in past years. The results will help you decide how hot, cold, wet, or windy it might be!

Date:

Astronomy

Dec. 06, 2012 Rise Set
Actual Time 7:17 AM EST 5:28 PM EST
Civil Twilight 6:50 AM EST 5:54 PM EST
Nautical Twilight 6:20 AM EST 6:24 PM EST
Astronomical Twilight 5:50 AM EST 6:54 PM EST
Moon No Moon Rise 12:30 PM EST (12/6)
Length of Visible Light 11h 04m
Length of Day
10h 10m
Waning Gibbous, 49% of the Moon is Illuminated
Dec 6
Waning Gibbous
Dec 13
New
Dec 20
First Quarter
Dec 28
Full
Jan 4
Last Quarter

Hourly Weather History & Observations

Time (EST) Temp. Dew Point Humidity Pressure Visibility Wind Dir Wind Speed Gust Speed Precip Events Conditions
12:15 AM 53.6 °F 51.8 °F 94% 30.12 in 10.0 mi Calm Calm - N/A   Clear
12:35 AM 53.6 °F 51.8 °F 94% 30.12 in 10.0 mi Calm Calm - N/A   Clear
12:55 AM 53.6 °F 51.8 °F 94% 30.12 in 10.0 mi Calm Calm - N/A   Scattered Clouds
1:15 AM 53.6 °F 51.8 °F 94% 30.12 in 10.0 mi NE 3.5 mph - N/A   Mostly Cloudy
1:35 AM 55.4 °F 51.8 °F 88% 30.11 in 10.0 mi Calm Calm - N/A   Overcast
1:55 AM 55.4 °F 53.6 °F 94% 30.11 in 10.0 mi Calm Calm - N/A   Overcast
2:15 AM 55.4 °F 53.6 °F 94% 30.11 in 10.0 mi Calm Calm - N/A   Overcast
2:35 AM 53.6 °F 51.8 °F 94% 30.11 in 10.0 mi Calm Calm - N/A   Mostly Cloudy
2:55 AM 55.4 °F 51.8 °F 88% 30.11 in 10.0 mi NE 3.5 mph - N/A   Mostly Cloudy
3:15 AM 55.4 °F 53.6 °F 94% 30.11 in 10.0 mi Calm Calm - N/A   Overcast
3:35 AM 55.4 °F 53.6 °F 94% 30.10 in 10.0 mi Calm Calm - N/A   Overcast
3:55 AM 55.4 °F 53.6 °F 94% 30.10 in 10.0 mi Calm Calm - N/A   Overcast
4:15 AM 53.6 °F 51.8 °F 94% 30.09 in 10.0 mi Calm Calm - N/A   Scattered Clouds
4:35 AM 53.6 °F 51.8 °F 94% 30.09 in 10.0 mi NNE 3.5 mph - N/A   Clear
4:55 AM 53.6 °F 51.8 °F 94% 30.09 in 10.0 mi Calm Calm - N/A   Mostly Cloudy
5:15 AM 55.4 °F 51.8 °F 88% 30.09 in 10.0 mi NE 3.5 mph - N/A   Mostly Cloudy
5:35 AM 55.4 °F 51.8 °F 88% 30.09 in 10.0 mi NE 4.6 mph - N/A   Overcast
5:55 AM 55.4 °F 53.6 °F 94% 30.09 in 10.0 mi Calm Calm - N/A   Overcast
6:15 AM 55.4 °F 53.6 °F 94% 30.10 in 10.0 mi ENE 3.5 mph - N/A   Overcast
6:35 AM 57.2 °F 53.6 °F 88% 30.10 in 10.0 mi NE 3.5 mph - N/A   Overcast
6:55 AM 57.2 °F 53.6 °F 88% 30.11 in 10.0 mi NE 4.6 mph - N/A   Overcast
7:15 AM 57.2 °F 55.4 °F 94% 30.12 in 10.0 mi NE 3.5 mph - N/A   Overcast
7:35 AM 59.0 °F 55.4 °F 88% 30.12 in 10.0 mi NNE 6.9 mph - N/A   Overcast
7:55 AM 59.0 °F 55.4 °F 88% 30.12 in 10.0 mi NNE 9.2 mph - N/A   Overcast
8:15 AM 59.0 °F 55.4 °F 88% 30.12 in 10.0 mi NNE 5.8 mph - N/A   Overcast
8:35 AM 60.8 °F 55.4 °F 82% 30.13 in 10.0 mi NE 6.9 mph - N/A   Overcast
8:55 AM 60.8 °F 55.4 °F 82% 30.14 in 10.0 mi ENE 6.9 mph - N/A   Overcast
9:15 AM 60.8 °F 55.4 °F 82% 30.14 in 10.0 mi NE 8.1 mph - N/A   Overcast
9:35 AM 62.6 °F 55.4 °F 77% 30.15 in 10.0 mi ENE 6.9 mph - N/A   Overcast
9:55 AM 62.6 °F 55.4 °F 77% 30.15 in 10.0 mi ENE 5.8 mph - N/A   Overcast
10:15 AM 62.6 °F 55.4 °F 77% 30.15 in 10.0 mi ENE 5.8 mph - N/A   Overcast
10:35 AM 64.4 °F 55.4 °F 73% 30.14 in 10.0 mi ENE 6.9 mph - N/A   Overcast
10:55 AM 64.4 °F 55.4 °F 73% 30.14 in 10.0 mi East 6.9 mph - N/A   Overcast
11:15 AM 66.2 °F 55.4 °F 68% 30.13 in 10.0 mi East 6.9 mph - N/A   Overcast
11:35 AM 68.0 °F 55.4 °F 64% 30.13 in 10.0 mi East 4.6 mph - N/A   Overcast
11:55 AM 69.8 °F 57.2 °F 64% 30.12 in 10.0 mi East 4.6 mph - N/A   Overcast
12:15 PM 69.8 °F 57.2 °F 64% 30.11 in 10.0 mi ESE 6.9 mph - N/A   Overcast
12:35 PM 69.8 °F 55.4 °F 60% 30.10 in 10.0 mi East 8.1 mph - N/A   Overcast
12:55 PM 68.0 °F 55.4 °F 64% 30.09 in 10.0 mi ESE 4.6 mph - N/A   Overcast
1:15 PM 68.0 °F 55.4 °F 64% 30.08 in 10.0 mi East 5.8 mph - N/A   Overcast
1:35 PM 68.0 °F 55.4 °F 64% 30.07 in 10.0 mi ENE 5.8 mph - N/A   Overcast
1:55 PM 68.0 °F 57.2 °F 68% 30.07 in 10.0 mi ENE 3.5 mph - N/A   Overcast
2:15 PM 68.0 °F 57.2 °F 68% 30.07 in 10.0 mi ENE 5.8 mph - N/A   Overcast
2:35 PM 68.0 °F 59.0 °F 73% 30.07 in 10.0 mi East 8.1 mph - N/A Rain Rain
2:55 PM 64.4 °F 60.8 °F 88% 30.07 in 7.0 mi East 4.6 mph - N/A   Drizzle
3:15 PM 64.4 °F 60.8 °F 88% 30.07 in 4.0 mi East 6.9 mph - N/A   Drizzle
3:35 PM 62.6 °F 60.8 °F 94% 30.07 in 7.0 mi Calm Calm - N/A   Light Drizzle
3:55 PM 64.4 °F 60.8 °F 88% 30.08 in 10.0 mi ENE 3.5 mph - N/A   Overcast
4:15 PM 64.4 °F 60.8 °F 88% 30.08 in 10.0 mi NE 5.8 mph - N/A   Overcast
4:35 PM 64.4 °F 60.8 °F 88% 30.08 in 10.0 mi ENE 5.8 mph - N/A   Overcast
4:55 PM 64.4 °F 59.0 °F 83% 30.08 in 10.0 mi ENE 5.8 mph - N/A   Overcast
5:15 PM 62.6 °F 60.8 °F 94% 30.08 in 10.0 mi ENE 5.8 mph - N/A   Overcast
5:35 PM 62.6 °F 60.8 °F 94% 30.08 in 10.0 mi ENE 6.9 mph - N/A   Overcast
5:55 PM 62.6 °F 60.8 °F 94% 30.08 in 7.0 mi NE 5.8 mph - N/A   Light Drizzle
6:15 PM 60.8 °F 60.8 °F 100% 30.08 in 7.0 mi NE 8.1 mph - N/A   Overcast
6:35 PM 60.8 °F 60.8 °F 100% 30.08 in 7.0 mi NE 8.1 mph - N/A   Overcast
6:55 PM 60.8 °F 60.8 °F 100% 30.08 in 7.0 mi NE 6.9 mph - N/A   Overcast
7:15 PM 60.8 °F 60.8 °F 100% 30.09 in 7.0 mi NE 6.9 mph - N/A   Overcast
7:35 PM 62.6 °F 60.8 °F 94% 30.09 in 7.0 mi NE 6.9 mph - N/A   Overcast
8:15 PM 60.8 °F 60.8 °F 100% 30.10 in 7.0 mi NE 4.6 mph - N/A   Overcast
8:35 PM 60.8 °F 59.0 °F 94% 30.10 in 7.0 mi ENE 4.6 mph - N/A   Overcast
8:55 PM 62.6 °F 59.0 °F 88% 30.10 in 10.0 mi ENE 4.6 mph - N/A   Overcast
9:35 PM 62.6 °F 59.0 °F 88% 30.09 in 10.0 mi ENE 6.9 mph - N/A   Overcast
9:55 PM 60.8 °F 57.2 °F 88% 30.10 in 10.0 mi East 8.1 mph - N/A   Overcast
10:15 PM 60.8 °F 55.4 °F 82% 30.09 in 10.0 mi East 8.1 mph - N/A   Mostly Cloudy
10:35 PM 60.8 °F 55.4 °F 82% 30.09 in 10.0 mi East 5.8 mph - N/A   Scattered Clouds
10:55 PM 59.0 °F 55.4 °F 88% 30.09 in 10.0 mi ENE 4.6 mph - N/A   Scattered Clouds
11:15 PM 59.0 °F 55.4 °F 88% 30.09 in 10.0 mi East 5.8 mph - N/A   Mostly Cloudy
11:35 PM 59.0 °F 55.4 °F 88% 30.09 in 10.0 mi East 5.8 mph - N/A   Overcast
11:55 PM 59.0 °F 55.4 °F 88% 30.09 in 10.0 mi East 5.8 mph - N/A   Overcast